Time;durP1;ratioP1;P1;durP2;ratioP2;P2;SDS_P1;SDS_P2;PMS_P1;PMS_P2;Temp;Humidity;BMP_temperature;BMP_pressure;BME280_temperature;BME280_humidity;BME280_pressure;Samples;Min_cycle;Max_cycle;Signal;HPM_P1;HPM_P2
2023/07/01 00:01:47;;;;;;;4.80;2.17;;;19.50;99.90;;;;;;5112385;28;20222;-57
2023/07/01 00:04:13;;;;;;;2.47;2.20;;;19.50;99.90;;;;;;5078402;28;20238;-58
2023/07/01 00:06:41;;;;;;;2.63;1.80;;;19.40;99.90;;;;;;5112045;28;20218;-54
2023/07/01 00:09:10;;;;;;;2.80;2.30;;;19.30;99.90;;;;;;5078067;28;20230;-57
2023/07/01 00:11:36;;;;;;;5.90;2.37;;;19.30;99.90;;;;;;5111374;28;20264;-58
2023/07/01 00:14:04;;;;;;;2.20;1.93;;;19.20;99.90;;;;;;5111250;28;20226;-58
2023/07/01 00:16:31;;;;;;;2.87;2.30;;;19.00;99.90;;;;;;5078823;28;20164;-55
2023/07/01 00:18:56;;;;;;;3.83;2.23;;;19.10;99.90;;;;;;5112203;28;20181;-57
2023/07/01 00:21:22;;;;;;;2.80;2.27;;;19.20;99.90;;;;;;5112166;28;20180;-56
2023/07/01 00:23:48;;;;;;;2.20;2.00;;;19.20;99.90;;;;;;5113083;28;20236;-55
2023/07/01 00:26:19;;;;;;;4.33;2.43;;;19.30;99.90;;;;;;5112992;28;20172;-56
2023/07/01 00:28:45;;;;;;;4.63;2.43;;;19.40;99.90;;;;;;5113368;28;20177;-56
2023/07/01 00:31:11;;;;;;;3.57;1.93;;;19.50;99.90;;;;;;5112394;28;20220;-57
2023/07/01 00:33:36;;;;;;;2.90;1.90;;;19.50;99.90;;;;;;5112218;28;20212;-58
2023/07/01 00:36:02;;;;;;;4.07;2.13;;;19.50;99.90;;;;;;5112536;28;20165;-58
2023/07/01 00:38:35;;;;;;;3.60;2.07;;;19.50;99.90;;;;;;5111777;28;20259;-58
2023/07/01 00:41:00;;;;;;;4.27;2.20;;;19.20;99.90;;;;;;5112457;28;20165;-55
2023/07/01 00:43:26;;;;;;;4.70;1.97;;;19.00;99.90;;;;;;5111501;28;20179;-54
2023/07/01 00:45:51;;;;;;;6.07;2.47;;;19.00;99.90;;;;;;5078238;28;20177;-55
2023/07/01 00:48:28;;;;;;;3.00;2.20;;;19.00;99.90;;;;;;5077858;28;20579;-56
2023/07/01 00:50:55;;;;;;;2.10;1.90;;;18.90;99.90;;;;;;5111816;28;20183;-53
2023/07/01 00:53:21;;;;;;;4.33;2.20;;;18.90;99.90;;;;;;5078748;28;20177;-55
2023/07/01 00:55:48;;;;;;;3.07;1.97;;;18.70;99.90;;;;;;5078390;28;20153;-59
2023/07/01 00:58:14;;;;;;;3.47;1.73;;;18.70;99.90;;;;;;5111373;28;20169;-54
2023/07/01 01:00:40;;;;;;;3.30;2.03;;;18.70;99.90;;;;;;5061566;28;20173;-58
2023/07/01 01:03:22;;;;;;;4.10;2.20;;;18.70;99.90;;;;;;5077646;28;20177;-57
2023/07/01 01:06:04;;;;;;;3.83;2.50;;;18.70;99.90;;;;;;5111504;28;20192;-58
2023/07/01 01:09:18;;;;;;;3.27;2.17;;;18.70;99.90;;;;;;5111255;28;20169;-56
2023/07/01 01:11:46;;;;;;;3.00;2.33;;;18.70;99.90;;;;;;5067823;28;20211;-57
2023/07/01 01:14:15;;;;;;;4.17;2.33;;;18.80;99.90;;;;;;5110362;28;20160;-57
2023/07/01 01:16:41;;;;;;;3.60;2.00;;;18.80;99.90;;;;;;5077540;28;20271;-56
2023/07/01 01:19:27;;;;;;;6.40;2.60;;;18.90;99.90;;;;;;5111137;28;20267;-56
2023/07/01 01:22:05;;;;;;;5.53;2.80;;;18.90;99.90;;;;;;5111633;28;20196;-58
2023/07/01 01:24:33;;;;;;;4.27;2.73;;;18.90;99.90;;;;;;5078124;28;20168;-57
2023/07/01 01:27:00;;;;;;;6.53;2.60;;;18.90;99.90;;;;;;5110958;28;20169;-58
2023/07/01 01:29:26;;;;;;;4.90;2.80;;;19.00;99.90;;;;;;5112021;28;20165;-58
2023/07/01 01:31:51;;;;;;;3.17;2.57;;;18.90;99.90;;;;;;5111242;28;20224;-58
2023/07/01 01:34:17;;;;;;;6.70;2.60;;;18.80;99.90;;;;;;5111324;28;20282;-55
2023/07/01 01:36:54;;;;;;;3.50;2.40;;;18.70;99.90;;;;;;5078098;28;20256;-54
2023/07/01 01:39:27;;;;;;;3.33;2.30;;;18.70;99.90;;;;;;5110973;28;20179;-54
2023/07/01 01:42:09;;;;;;;3.73;2.93;;;18.60;99.90;;;;;;5111046;28;20546;-55
2023/07/01 01:44:46;;;;;;;3.83;3.50;;;18.60;99.90;;;;;;5110671;28;20171;-58
2023/07/01 01:47:16;;;;;;;4.13;3.37;;;18.70;99.90;;;;;;5110660;28;20172;-54
2023/07/01 01:49:42;;;;;;;4.87;2.90;;;18.70;99.90;;;;;;5110507;28;20165;-56
2023/07/01 01:52:13;;;;;;;3.87;3.00;;;18.70;99.90;;;;;;5109515;28;20196;-52
2023/07/01 01:54:39;;;;;;;5.20;3.30;;;18.70;99.90;;;;;;5110273;28;20199;-57
2023/07/01 01:57:05;;;;;;;4.30;3.03;;;18.50;99.90;;;;;;5077870;28;20214;-55
2023/07/01 01:59:31;;;;;;;4.20;3.20;;;18.60;99.90;;;;;;5111324;28;20275;-53
2023/07/01 02:01:57;;;;;;;6.87;3.57;;;18.70;99.90;;;;;;5077614;28;20173;-55
2023/07/01 02:04:23;;;;;;;7.67;3.93;;;18.70;99.90;;;;;;5077892;28;20173;-58
2023/07/01 02:06:49;;;;;;;3.90;3.50;;;18.70;99.90;;;;;;5108769;28;20198;-55
2023/07/01 02:09:14;;;;;;;4.13;3.73;;;18.70;99.90;;;;;;5107917;28;20160;-54
2023/07/01 02:11:40;;;;;;;7.70;4.10;;;18.70;99.90;;;;;;5107892;28;20161;-55
2023/07/01 02:14:05;;;;;;;6.73;3.67;;;18.70;99.90;;;;;;5107044;28;20204;-56
2023/07/01 02:16:33;;;;;;;6.00;3.57;;;18.70;99.90;;;;;;5107190;28;20169;-55
2023/07/01 02:18:59;;;;;;;4.33;3.60;;;18.60;99.90;;;;;;5107111;28;20164;-56
2023/07/01 02:21:25;;;;;;;4.17;3.87;;;18.60;99.90;;;;;;5110147;28;20171;-55
2023/07/01 02:23:50;;;;;;;3.77;2.80;;;18.70;99.90;;;;;;5078073;28;20153;-56
2023/07/01 02:26:16;;;;;;;4.17;3.07;;;18.60;99.90;;;;;;5111170;28;20173;-56
2023/07/01 02:28:42;;;;;;;4.43;3.37;;;18.50;99.90;;;;;;5110911;28;20204;-57
2023/07/01 02:31:07;;;;;;;3.47;3.03;;;18.50;99.90;;;;;;5111243;28;20228;-57
2023/07/01 02:33:33;;;;;;;3.23;2.93;;;18.40;99.90;;;;;;5111070;28;20212;-54
2023/07/01 02:35:58;;;;;;;3.90;3.60;;;18.40;99.90;;;;;;5110562;28;20599;-57
2023/07/01 02:38:24;;;;;;;4.30;3.57;;;18.30;99.90;;;;;;5077126;28;20186;-56
2023/07/01 02:40:50;;;;;;;4.53;4.23;;;18.30;99.90;;;;;;5110403;28;20177;-56
2023/07/01 02:43:15;;;;;;;4.00;3.67;;;18.20;99.90;;;;;;5110175;28;20233;-55
2023/07/01 02:45:41;;;;;;;4.53;3.80;;;18.20;99.90;;;;;;5110300;28;20188;-58
2023/07/01 02:48:07;;;;;;;4.10;3.70;;;18.20;99.90;;;;;;5110740;28;20230;-58
2023/07/01 02:50:33;;;;;;;5.87;4.30;;;18.30;99.90;;;;;;5109912;28;20557;-58
2023/07/01 02:52:58;;;;;;;4.87;3.70;;;18.20;99.90;;;;;;5077266;28;20200;-60
2023/07/01 02:55:30;;;;;;;3.80;3.43;;;18.30;99.90;;;;;;5109844;28;20578;-55
2023/07/01 02:57:55;;;;;;;4.53;3.03;;;18.20;99.90;;;;;;5076251;28;20226;-58
2023/07/01 03:00:21;;;;;;;3.57;3.20;;;18.20;99.90;;;;;;5109349;28;20209;-58
2023/07/01 03:02:47;;;;;;;5.97;3.43;;;18.20;99.90;;;;;;5077654;28;20199;-57
2023/07/01 03:05:13;;;;;;;6.50;3.40;;;18.20;99.90;;;;;;5080438;28;20173;-58
2023/07/01 03:07:38;;;;;;;5.57;3.53;;;18.20;99.90;;;;;;5079268;28;20176;-56
2023/07/01 03:10:06;;;;;;;3.43;3.13;;;18.10;99.90;;;;;;5077210;28;20521;-59
2023/07/01 03:12:31;;;;;;;3.50;3.20;;;18.10;99.90;;;;;;5109848;28;20204;-56
2023/07/01 03:18:19;;;;;;;5.53;3.27;;;18.20;99.90;;;;;;5076550;28;20230;-55
2023/07/01 03:20:44;;;;;;;3.87;3.47;;;18.20;99.90;;;;;;5076455;28;20256;-58
2023/07/01 03:23:10;;;;;;;6.77;3.13;;;18.20;99.90;;;;;;5111755;28;20183;-54
2023/07/01 03:25:36;;;;;;;6.03;3.30;;;18.20;99.90;;;;;;5078687;28;20307;-58
2023/07/01 03:28:02;;;;;;;3.93;3.40;;;18.20;99.90;;;;;;5111809;28;20212;-58
2023/07/01 03:30:30;;;;;;;4.97;3.10;;;18.20;99.90;;;;;;5078255;28;20631;-59
2023/07/01 03:32:56;;;;;;;3.83;2.50;;;18.20;99.90;;;;;;5079018;28;20200;-57
2023/07/01 03:35:22;;;;;;;4.83;2.97;;;18.20;99.90;;;;;;5113006;28;20177;-57
2023/07/01 03:37:52;;;;;;;3.80;3.03;;;18.20;99.90;;;;;;5112932;28;20180;-59
2023/07/01 03:40:17;;;;;;;3.37;2.53;;;18.20;99.90;;;;;;5112165;28;20161;-59
2023/07/01 03:42:44;;;;;;;4.43;3.00;;;18.10;99.90;;;;;;5112394;28;20275;-58
2023/07/01 03:45:11;;;;;;;8.47;4.23;;;18.20;99.90;;;;;;5079452;28;20173;-58
2023/07/01 03:47:39;;;;;;;4.70;3.43;;;18.10;99.90;;;;;;5112549;28;20181;-55
2023/07/01 03:50:08;;;;;;;7.57;4.17;;;18.10;99.90;;;;;;5112504;28;20225;-57
2023/07/01 03:52:38;;;;;;;4.23;3.80;;;18.10;99.90;;;;;;5112365;28;20208;-58
2023/07/01 03:55:18;;;;;;;5.07;4.67;;;18.10;99.90;;;;;;5112583;28;20196;-57
2023/07/01 03:57:43;;;;;;;4.00;3.70;;;18.10;99.90;;;;;;5112031;28;20264;-57
2023/07/01 04:00:17;;;;;;;4.57;4.17;;;18.10;99.90;;;;;;5112618;28;20208;-58
2023/07/01 04:02:52;;;;;;;4.73;4.13;;;18.00;99.90;;;;;;5111430;28;20647;-57
2023/07/01 04:05:19;;;;;;;3.90;3.60;;;18.10;99.90;;;;;;5111778;28;20207;-59
2023/07/01 04:07:47;;;;;;;4.27;3.87;;;18.00;99.90;;;;;;5111072;28;20184;-58
2023/07/01 04:10:13;;;;;;;3.57;3.07;;;18.00;99.90;;;;;;5110879;28;20181;-57
2023/07/01 04:12:39;;;;;;;4.07;3.40;;;18.00;99.90;;;;;;5076498;28;20211;-59
2023/07/01 04:15:09;;;;;;;4.00;3.57;;;17.90;99.90;;;;;;5110018;28;20173;-59
2023/07/01 04:17:36;;;;;;;5.13;4.00;;;17.90;99.90;;;;;;5077573;28;20195;-58
2023/07/01 04:20:03;;;;;;;4.50;3.73;;;18.00;99.90;;;;;;5109260;28;20781;-59
2023/07/01 04:22:29;;;;;;;4.07;3.67;;;17.90;99.90;;;;;;5109559;28;20177;-58
2023/07/01 04:24:54;;;;;;;5.30;3.17;;;17.90;99.90;;;;;;5111070;28;20179;-59
2023/07/01 04:27:20;;;;;;;7.20;3.67;;;18.00;99.90;;;;;;5111138;28;20738;-59
2023/07/01 04:29:46;;;;;;;5.93;3.30;;;17.90;99.90;;;;;;5077025;28;20495;-56
2023/07/01 04:32:11;;;;;;;7.10;3.90;;;17.90;99.90;;;;;;5111140;28;20224;-57
2023/07/01 04:34:37;;;;;;;3.77;3.40;;;17.90;99.90;;;;;;5111409;28;20172;-59
2023/07/01 04:37:03;;;;;;;3.33;3.03;;;17.90;99.90;;;;;;5111771;28;20165;-59
2023/07/01 04:39:29;;;;;;;5.33;3.40;;;17.90;99.90;;;;;;5078422;28;20173;-59
2023/07/01 04:41:54;;;;;;;6.40;3.50;;;17.90;99.90;;;;;;5112122;28;20169;-59
2023/07/01 04:44:23;;;;;;;5.27;3.20;;;17.80;99.90;;;;;;5078009;28;20184;-59
2023/07/01 04:46:49;;;;;;;5.60;3.47;;;17.80;99.90;;;;;;5110587;28;20340;-59
2023/07/01 04:49:15;;;;;;;4.50;3.00;;;17.80;99.90;;;;;;5110905;28;20699;-57
2023/07/01 04:51:41;;;;;;;5.60;3.30;;;17.80;99.90;;;;;;5110234;28;20218;-58
2023/07/01 04:54:07;;;;;;;5.67;3.03;;;17.80;99.90;;;;;;5110017;28;20215;-58
2023/07/01 04:56:33;;;;;;;3.20;2.90;;;17.80;99.90;;;;;;5111084;28;20165;-58
2023/07/01 04:58:58;;;;;;;3.40;2.93;;;17.80;99.90;;;;;;5077894;28;20176;-58
2023/07/01 05:01:24;;;;;;;3.23;2.93;;;17.80;99.90;;;;;;5111016;28;20251;-58
2023/07/01 05:03:49;;;;;;;3.83;3.10;;;17.80;99.90;;;;;;5111173;28;20672;-58
2023/07/01 05:06:15;;;;;;;3.50;3.20;;;17.90;99.90;;;;;;5077904;28;20169;-59
2023/07/01 05:08:41;;;;;;;3.90;2.70;;;17.80;99.90;;;;;;5110288;28;20630;-59
2023/07/01 05:11:06;;;;;;;3.33;3.00;;;17.80;99.90;;;;;;5110558;28;20462;-59
2023/07/01 05:13:32;;;;;;;4.50;3.10;;;17.80;99.90;;;;;;5110769;28;20209;-59
2023/07/01 05:15:58;;;;;;;4.17;3.20;;;17.80;99.90;;;;;;5110007;28;20574;-59
2023/07/01 05:18:23;;;;;;;4.50;3.20;;;17.80;99.90;;;;;;5076775;28;20187;-59
2023/07/01 05:20:49;;;;;;;5.97;3.20;;;17.80;99.90;;;;;;5109803;28;20229;-58
2023/07/01 05:23:14;;;;;;;5.27;3.10;;;17.80;99.90;;;;;;5109898;28;20168;-59
2023/07/01 05:25:40;;;;;;;4.50;2.83;;;17.80;99.90;;;;;;5075260;28;20270;-59
2023/07/01 05:28:06;;;;;;;5.60;3.10;;;17.80;99.90;;;;;;5108658;28;20799;-57
2023/07/01 05:30:31;;;;;;;5.37;3.00;;;17.70;99.90;;;;;;5075944;28;20224;-59
2023/07/01 05:32:57;;;;;;;5.97;2.83;;;17.70;99.90;;;;;;5109549;28;20208;-59
2023/07/01 05:35:23;;;;;;;6.20;3.00;;;17.70;99.90;;;;;;5109753;28;20169;-59
2023/07/01 05:37:48;;;;;;;7.47;3.00;;;17.70;99.90;;;;;;5109827;28;20165;-59
2023/07/01 05:40:14;;;;;;;8.53;2.80;;;17.60;99.90;;;;;;5076176;28;20169;-59
2023/07/01 05:42:39;;;;;;;3.80;2.80;;;17.60;99.90;;;;;;5077234;28;20172;-59
2023/07/01 05:45:06;;;;;;;3.37;3.03;;;17.50;99.90;;;;;;5110506;28;20257;-61
2023/07/01 05:47:32;;;;;;;5.70;2.97;;;17.40;99.90;;;;;;5110366;28;20177;-59
2023/07/01 05:49:57;;;;;;;6.53;3.83;;;17.40;99.90;;;;;;5077059;28;20234;-56
2023/07/01 05:52:23;;;;;;;4.40;4.00;;;17.40;99.90;;;;;;5109857;28;20204;-53
2023/07/01 05:54:49;;;;;;;5.40;4.00;;;17.40;99.90;;;;;;5108055;28;20169;-57
2023/07/01 05:57:14;;;;;;;8.03;7.43;;;17.40;99.90;;;;;;5107222;28;20183;-59
2023/07/01 05:59:40;;;;;;;15.87;14.87;;;17.40;99.90;;;;;;5106555;28;20173;-60
2023/07/01 06:02:07;;;;;;;19.90;18.37;;;17.40;99.90;;;;;;5106652;28;20172;-59
2023/07/01 06:04:33;;;;;;;24.50;15.37;;;17.40;99.90;;;;;;5106055;28;20183;-58
2023/07/01 06:06:59;;;;;;;11.27;7.20;;;17.40;99.90;;;;;;5104716;28;20173;-60
2023/07/01 06:09:24;;;;;;;7.47;5.80;;;17.40;99.90;;;;;;5104762;28;20679;-58
2023/07/01 06:11:50;;;;;;;7.53;4.63;;;17.50;99.90;;;;;;5104309;28;20489;-58
2023/07/01 06:14:15;;;;;;;4.17;3.87;;;17.60;99.90;;;;;;5105176;28;20301;-59
2023/07/01 06:16:41;;;;;;;9.93;5.70;;;17.40;99.90;;;;;;5105304;28;20334;-58
2023/07/01 06:19:07;;;;;;;6.73;5.97;;;17.40;99.90;;;;;;5106241;28;20274;-59
2023/07/01 06:21:32;;;;;;;12.13;11.07;;;17.40;99.90;;;;;;5073299;28;20253;-56
2023/07/01 06:23:58;;;;;;;8.07;5.50;;;17.30;99.90;;;;;;5104646;28;20172;-59
2023/07/01 06:26:23;;;;;;;4.40;4.10;;;17.30;99.90;;;;;;5104556;28;20180;-59
2023/07/01 06:28:49;;;;;;;11.20;4.93;;;17.30;99.90;;;;;;5070803;28;20176;-59
2023/07/01 06:31:15;;;;;;;7.40;3.93;;;17.30;99.90;;;;;;5103414;28;20224;-59
2023/07/01 06:33:41;;;;;;;5.10;3.63;;;17.30;99.90;;;;;;5071853;28;20220;-57
2023/07/01 06:36:07;;;;;;;11.97;3.70;;;17.30;99.90;;;;;;5105261;28;20179;-59
2023/07/01 06:38:33;;;;;;;7.37;3.33;;;17.20;99.90;;;;;;5108160;28;20175;-56
2023/07/01 06:40:59;;;;;;;9.07;4.00;;;17.30;99.90;;;;;;5109413;28;20177;-58
2023/07/01 06:43:24;;;;;;;4.37;3.60;;;17.40;99.90;;;;;;5079299;28;20246;-55
2023/07/01 06:45:50;;;;;;;3.97;3.27;;;17.50;99.90;;;;;;5112637;28;20310;-59
2023/07/01 06:48:15;;;;;;;5.53;4.17;;;17.50;99.90;;;;;;5111194;28;20584;-58
2023/07/01 06:50:42;;;;;;;5.57;4.10;;;17.60;99.90;;;;;;5104907;28;20491;-59
2023/07/01 06:53:07;;;;;;;6.57;5.50;;;17.50;99.90;;;;;;5104039;28;20299;-59
2023/07/01 06:55:33;;;;;;;5.83;5.27;;;17.50;99.90;;;;;;5101596;28;20267;-57
2023/07/01 06:58:02;;;;;;;7.23;5.37;;;17.60;99.90;;;;;;5099224;28;20260;-58
2023/07/01 07:00:29;;;;;;;5.07;4.67;;;17.60;99.90;;;;;;5097178;28;20195;-58
2023/07/01 07:02:55;;;;;;;5.70;5.30;;;17.60;99.90;;;;;;5097054;28;20176;-57
2023/07/01 07:05:20;;;;;;;4.33;4.00;;;17.60;99.90;;;;;;5098053;28;20183;-57
2023/07/01 07:07:46;;;;;;;4.20;3.80;;;17.50;99.90;;;;;;5097502;28;20399;-59
2023/07/01 07:10:12;;;;;;;5.90;3.93;;;17.50;99.90;;;;;;5098224;28;20552;-58
2023/07/01 07:12:37;;;;;;;6.00;3.77;;;17.40;99.90;;;;;;5098830;28;20273;-58
2023/07/01 07:15:03;;;;;;;4.00;3.37;;;17.40;99.90;;;;;;5101413;28;20380;-59
2023/07/01 07:17:29;;;;;;;5.80;3.50;;;17.40;99.90;;;;;;5069437;28;20169;-59
2023/07/01 07:19:55;;;;;;;5.47;4.03;;;17.40;99.90;;;;;;5103145;28;20204;-58
2023/07/01 07:22:21;;;;;;;4.10;3.70;;;17.30;99.90;;;;;;5108246;28;20250;-58
2023/07/01 07:24:46;;;;;;;5.30;4.13;;;17.20;99.90;;;;;;5073676;28;20225;-59
2023/07/01 07:27:12;;;;;;;5.77;3.80;;;17.10;99.90;;;;;;5106326;28;20260;-59
2023/07/01 07:29:38;;;;;;;4.60;3.53;;;17.10;99.90;;;;;;5106424;28;20172;-59
2023/07/01 07:32:05;;;;;;;5.57;3.90;;;17.10;99.90;;;;;;5105868;28;20177;-59
2023/07/01 07:34:30;;;;;;;11.30;4.07;;;17.10;99.90;;;;;;5105913;28;20784;-59
2023/07/01 07:36:57;;;;;;;6.07;3.77;;;17.00;99.90;;;;;;5070318;28;20172;-58
2023/07/01 07:39:23;;;;;;;6.33;4.30;;;16.90;99.90;;;;;;5103351;28;20169;-57
2023/07/01 07:41:49;;;;;;;7.53;3.60;;;16.90;99.90;;;;;;5103997;28;20169;-57
2023/07/01 07:44:16;;;;;;;7.93;3.33;;;16.90;99.90;;;;;;5105267;28;20172;-59
2023/07/01 07:46:44;;;;;;;4.77;4.27;;;16.90;99.90;;;;;;5105808;28;20186;-57
2023/07/01 07:49:12;;;;;;;5.73;3.70;;;16.90;99.90;;;;;;5103034;28;20165;-58
2023/07/01 07:51:39;;;;;;;9.70;6.20;;;16.80;99.90;;;;;;5105206;28;20200;-59
2023/07/01 07:54:04;;;;;;;9.17;4.83;;;16.80;99.90;;;;;;5104249;28;20236;-59
2023/07/01 07:56:30;;;;;;;6.70;3.70;;;16.80;99.90;;;;;;5104973;28;20174;-59
2023/07/01 07:58:55;;;;;;;5.80;4.70;;;16.70;99.90;;;;;;5105345;28;20173;-57
2023/07/01 08:01:21;;;;;;;10.23;9.33;;;16.70;99.90;;;;;;5104014;28;20156;-57
2023/07/01 08:03:48;;;;;;;9.40;6.10;;;16.60;99.90;;;;;;5102002;28;20173;-58
2023/07/01 08:06:13;;;;;;;7.27;6.10;;;16.50;99.90;;;;;;5098841;28;20165;-59
2023/07/01 08:08:39;;;;;;;8.83;7.03;;;16.50;99.90;;;;;;5068402;28;20241;-59
2023/07/01 08:11:04;;;;;;;9.47;5.83;;;16.50;99.90;;;;;;5100293;28;20845;-59
2023/07/01 08:13:30;;;;;;;6.30;5.80;;;16.60;99.90;;;;;;5101949;28;20203;-57
2023/07/01 08:15:57;;;;;;;9.33;8.30;;;16.50;99.90;;;;;;5102759;28;20203;-58
2023/07/01 08:18:24;;;;;;;11.37;5.57;;;16.50;99.90;;;;;;5103116;28;20165;-59
2023/07/01 08:20:50;;;;;;;6.93;5.57;;;16.40;99.90;;;;;;5102255;28;20173;-59
2023/07/01 08:23:17;;;;;;;11.00;6.37;;;16.40;99.90;;;;;;5104096;28;20171;-57
2023/07/01 08:25:43;;;;;;;5.50;4.80;;;16.40;99.90;;;;;;5072913;28;20533;-59
2023/07/01 08:28:09;;;;;;;7.63;5.90;;;16.40;99.90;;;;;;5087732;28;20179;-59
2023/07/01 08:30:36;;;;;;;7.43;5.43;;;16.30;99.90;;;;;;5092434;28;20308;-58
2023/07/01 08:33:03;;;;;;;9.57;5.60;;;16.40;99.90;;;;;;5093285;28;20211;-57
2023/07/01 08:35:29;;;;;;;5.60;5.10;;;16.30;99.90;;;;;;5094624;28;20156;-58
2023/07/01 08:37:56;;;;;;;6.03;5.43;;;16.30;99.90;;;;;;5095764;28;20168;-59
2023/07/01 08:40:21;;;;;;;7.80;5.67;;;16.30;99.90;;;;;;5094748;28;20198;-59
2023/07/01 08:42:50;;;;;;;9.50;8.63;;;16.20;99.90;;;;;;5094509;28;20267;-59
2023/07/01 08:45:21;;;;;;;6.87;5.70;;;16.10;99.90;;;;;;5091529;28;20237;-61
2023/07/01 08:47:48;;;;;;;9.47;6.03;;;16.10;99.90;;;;;;5091375;28;20724;-59
2023/07/01 08:50:18;;;;;;;8.70;6.33;;;16.10;99.90;;;;;;5088798;28;20203;-59
2023/07/01 08:52:47;;;;;;;8.80;8.00;;;16.10;99.90;;;;;;5086006;28;20199;-58
2023/07/01 08:55:13;;;;;;;9.23;8.17;;;16.10;99.90;;;;;;5087766;28;20171;-58
2023/07/01 08:57:41;;;;;;;9.03;7.27;;;16.10;99.90;;;;;;5086783;28;20168;-59
2023/07/01 09:00:09;;;;;;;9.73;7.90;;;16.00;99.90;;;;;;5088359;28;20176;-58
2023/07/01 09:02:36;;;;;;;9.87;7.70;;;16.00;99.90;;;;;;5089740;28;20180;-59
2023/07/01 09:05:04;;;;;;;9.37;8.27;;;16.00;99.90;;;;;;5073213;28;20195;-59
2023/07/01 09:07:29;;;;;;;12.63;8.73;;;16.00;99.90;;;;;;5075061;28;20183;-57
2023/07/01 09:09:56;;;;;;;9.23;7.43;;;16.00;99.90;;;;;;5090660;28;20175;-59
2023/07/01 09:12:32;;;;;;;11.93;8.43;;;16.00;99.90;;;;;;5090169;28;20223;-57
2023/07/01 09:15:07;;;;;;;11.40;8.53;;;16.00;99.90;;;;;;5091821;28;20219;-59
2023/07/01 09:17:39;;;;;;;9.07;8.23;;;16.10;99.90;;;;;;5091303;28;20167;-59
2023/07/01 09:20:10;;;;;;;9.13;8.17;;;16.00;99.90;;;;;;5057972;28;20172;-59
2023/07/01 09:22:43;;;;;;;10.67;9.77;;;16.00;99.90;;;;;;5092926;28;20256;-58
2023/07/01 09:25:26;;;;;;;8.50;7.70;;;16.00;99.90;;;;;;5091844;28;20167;-59
2023/07/01 09:27:52;;;;;;;8.33;7.53;;;16.10;99.90;;;;;;5091440;28;20182;-59
2023/07/01 09:30:28;;;;;;;7.40;6.70;;;16.10;99.90;;;;;;5091888;28;20231;-59
2023/07/01 09:33:13;;;;;;;9.63;7.50;;;16.10;99.90;;;;;;5092698;28;20203;-59
2023/07/01 09:35:45;;;;;;;12.57;8.97;;;16.00;99.90;;;;;;5094499;28;20152;-57
2023/07/01 09:38:13;;;;;;;10.20;8.37;;;16.00;99.90;;;;;;5095063;28;20179;-58
2023/07/01 09:40:38;;;;;;;9.40;8.53;;;16.00;99.90;;;;;;5093379;28;20616;-59
2023/07/01 09:43:04;;;;;;;9.20;8.00;;;16.00;99.90;;;;;;5091447;28;20199;-59
2023/07/01 09:45:30;;;;;;;9.50;7.40;;;16.00;99.90;;;;;;5090554;28;20199;-58
2023/07/01 09:47:56;;;;;;;11.30;8.13;;;16.10;99.90;;;;;;5089940;28;20167;-59
2023/07/01 09:50:26;;;;;;;10.70;7.50;;;16.10;99.90;;;;;;5090244;28;20172;-59
2023/07/01 09:52:55;;;;;;;8.77;7.70;;;16.10;99.90;;;;;;5090632;28;20694;-58
2023/07/01 09:55:22;;;;;;;8.57;7.67;;;16.10;99.90;;;;;;5089700;28;20168;-58
2023/07/01 09:57:48;;;;;;;12.07;8.40;;;16.00;99.90;;;;;;5091076;28;20168;-58
2023/07/01 10:00:17;;;;;;;9.27;7.73;;;16.10;99.90;;;;;;5092300;28;20168;-58
2023/07/01 10:02:45;;;;;;;9.00;8.10;;;16.10;99.90;;;;;;5093857;28;20180;-59
2023/07/01 10:05:14;;;;;;;13.57;8.93;;;16.10;99.90;;;;;;5094652;28;20179;-59
2023/07/01 10:07:42;;;;;;;12.57;9.27;;;16.00;99.90;;;;;;5094317;28;20187;-59
2023/07/01 10:10:17;;;;;;;10.40;9.13;;;16.10;99.90;;;;;;5093811;28;20172;-59
2023/07/01 10:12:47;;;;;;;12.23;8.87;;;16.10;99.90;;;;;;5096449;28;20286;-58
2023/07/01 10:15:18;;;;;;;9.10;8.17;;;16.00;99.90;;;;;;5098256;28;20246;-59
2023/07/01 10:17:46;;;;;;;11.27;10.17;;;16.00;99.90;;;;;;5097308;28;20183;-59
2023/07/01 10:20:32;;;;;;;10.27;9.17;;;16.00;99.90;;;;;;5096874;28;20187;-59
2023/07/01 10:23:04;;;;;;;15.40;10.43;;;16.10;99.90;;;;;;5097133;28;20195;-58
2023/07/01 10:25:36;;;;;;;11.50;9.90;;;16.10;99.90;;;;;;5098379;28;20184;-59
2023/07/01 10:28:07;;;;;;;11.23;10.17;;;16.00;99.90;;;;;;5097243;28;20663;-58
2023/07/01 10:30:58;;;;;;;11.73;10.33;;;16.10;99.90;;;;;;5097212;28;20307;-59
2023/07/01 10:33:36;;;;;;;10.40;9.40;;;16.10;99.90;;;;;;5087337;28;20212;-59
2023/07/01 10:36:20;;;;;;;9.57;8.57;;;16.20;99.90;;;;;;5094409;28;20728;-57
2023/07/01 10:38:47;;;;;;;11.00;9.87;;;16.20;99.90;;;;;;5092994;28;20489;-58
2023/07/01 10:41:13;;;;;;;15.43;10.70;;;16.20;99.90;;;;;;5091642;28;20281;-59
2023/07/01 10:43:40;;;;;;;13.40;11.13;;;16.30;99.90;;;;;;5093909;28;20272;-57
2023/07/01 10:46:24;;;;;;;11.77;10.67;;;16.30;99.90;;;;;;5094885;28;20153;-58
2023/07/01 10:49:02;;;;;;;12.17;10.97;;;16.30;99.90;;;;;;5092146;28;20171;-55
2023/07/01 10:51:34;;;;;;;10.77;9.73;;;16.20;99.90;;;;;;5092070;28;20210;-58
2023/07/01 10:54:02;;;;;;;10.70;9.60;;;16.20;99.90;;;;;;5091224;28;20272;-57
2023/07/01 10:56:34;;;;;;;11.30;10.23;;;16.20;99.90;;;;;;5091811;28;20164;-59
2023/07/01 10:59:25;;;;;;;10.77;9.70;;;16.30;99.90;;;;;;5090324;28;20205;-58
2023/07/01 11:01:56;;;;;;;11.13;8.83;;;16.30;99.90;;;;;;5090349;28;20168;-58
2023/07/01 11:04:23;;;;;;;11.77;9.33;;;16.30;99.90;;;;;;5091877;28;20175;-55
2023/07/01 11:06:53;;;;;;;10.77;9.77;;;16.30;99.90;;;;;;5090867;28;20177;-59
2023/07/01 11:09:28;;;;;;;14.77;9.73;;;16.20;99.90;;;;;;5091232;28;20182;-57
2023/07/01 11:12:14;;;;;;;12.00;9.67;;;16.20;99.90;;;;;;5090657;28;20266;-58
2023/07/01 11:14:40;;;;;;;12.43;10.47;;;16.20;99.90;;;;;;5088932;28;20569;-59
2023/07/01 11:17:09;;;;;;;15.93;10.53;;;16.10;99.90;;;;;;5090616;28;20577;-59
2023/07/01 11:19:35;;;;;;;12.47;11.10;;;16.10;99.90;;;;;;5087115;28;20195;-58
2023/07/01 11:22:01;;;;;;;13.20;12.10;;;16.10;99.90;;;;;;5084490;28;20173;-58
2023/07/01 11:24:27;;;;;;;13.60;11.43;;;16.10;99.90;;;;;;5083651;28;20176;-59
2023/07/01 11:27:01;;;;;;;13.17;11.87;;;16.10;99.90;;;;;;5084478;28;20179;-58
2023/07/01 11:29:28;;;;;;;13.63;12.20;;;16.10;99.90;;;;;;5083107;28;20178;-57
2023/07/01 11:32:04;;;;;;;13.13;11.97;;;16.20;99.90;;;;;;5084442;28;20243;-59
2023/07/01 11:34:31;;;;;;;14.20;12.53;;;16.10;99.90;;;;;;5069744;28;20222;-60
2023/07/01 11:36:59;;;;;;;15.17;13.57;;;16.10;99.90;;;;;;5086801;28;20164;-59
2023/07/01 11:39:26;;;;;;;15.67;14.27;;;16.10;99.90;;;;;;5071085;28;20169;-59
2023/07/01 11:41:57;;;;;;;13.37;12.07;;;16.20;99.90;;;;;;5090503;28;20188;-58
2023/07/01 11:44:26;;;;;;;13.03;11.97;;;16.20;99.90;;;;;;5093041;28;20233;-59
2023/07/01 11:46:52;;;;;;;13.90;12.57;;;16.20;99.90;;;;;;5093481;28;20172;-59
2023/07/01 11:49:22;;;;;;;13.83;12.63;;;16.20;99.90;;;;;;5075849;28;20550;-59
2023/07/01 11:51:49;;;;;;;14.00;12.10;;;16.20;99.90;;;;;;5092513;28;20168;-57
2023/07/01 11:54:18;;;;;;;13.97;12.67;;;16.20;99.90;;;;;;5074478;28;20261;-60
2023/07/01 11:56:47;;;;;;;16.33;12.07;;;16.30;99.90;;;;;;5091375;28;20256;-60
2023/07/01 11:59:33;;;;;;;14.30;12.80;;;16.30;99.90;;;;;;5090178;28;20560;-60
2023/07/01 12:02:00;;;;;;;13.30;12.03;;;16.30;99.90;;;;;;5072385;28;20581;-59
2023/07/01 12:04:27;;;;;;;14.07;11.67;;;16.40;99.90;;;;;;5090871;28;20206;-60
2023/07/01 12:07:09;;;;;;;12.83;11.67;;;16.40;99.90;;;;;;5089684;28;20176;-60
2023/07/01 12:09:38;;;;;;;13.70;12.40;;;16.40;99.90;;;;;;5089790;28;20183;-59
2023/07/01 12:12:04;;;;;;;12.87;11.67;;;16.40;99.90;;;;;;5087191;28;20644;-60
2023/07/01 12:14:30;;;;;;;13.87;11.30;;;16.40;99.90;;;;;;5088523;28;20311;-59
2023/07/01 12:16:56;;;;;;;11.83;10.73;;;16.50;99.90;;;;;;5090117;28;20266;-58
2023/07/01 12:19:23;;;;;;;12.50;11.40;;;16.50;99.90;;;;;;5088878;28;20171;-59
2023/07/01 12:21:53;;;;;;;11.87;10.77;;;16.40;99.90;;;;;;5089891;28;20751;-59
2023/07/01 12:24:30;;;;;;;10.27;9.40;;;16.40;99.90;;;;;;5090661;28;20207;-59
2023/07/01 12:26:57;;;;;;;12.63;11.43;;;16.40;99.90;;;;;;5088493;28;20183;-58
2023/07/01 12:29:25;;;;;;;10.47;9.57;;;16.50;99.90;;;;;;5087025;28;20169;-60
2023/07/01 12:31:53;;;;;;;12.40;11.20;;;16.50;99.90;;;;;;5070024;28;20342;-60
2023/07/01 12:34:19;;;;;;;12.53;11.30;;;16.50;99.90;;;;;;5086733;28;20230;-59
2023/07/01 12:36:46;;;;;;;11.47;10.20;;;16.60;99.90;;;;;;5068664;28;20671;-58
2023/07/01 12:39:13;;;;;;;12.60;11.47;;;16.60;99.90;;;;;;5087164;28;20544;-59
2023/07/01 12:41:39;;;;;;;13.43;12.17;;;16.60;99.90;;;;;;5087719;28;20710;-60
2023/07/01 12:44:07;;;;;;;14.00;12.70;;;16.60;99.90;;;;;;5089209;28;20199;-59
2023/07/01 12:46:33;;;;;;;13.33;12.00;;;16.60;99.90;;;;;;5090857;28;20266;-59
2023/07/01 12:49:02;;;;;;;12.07;10.93;;;16.60;99.90;;;;;;5091097;28;20236;-60
2023/07/01 12:51:27;;;;;;;11.93;10.87;;;16.70;99.90;;;;;;5091507;28;20167;-60